Briefing drone pour Voiron

Rechercher une autre localisation

Conditions de vol :


Nous sommes le : Mercredi 30 septembre 2020
Il est 02:22 UTC (04:22 LT)

Lever de soleil : 05:08 UTC (07:08 LT)
Coucher de soleil : 17:46 UTC (19:46 LT)

Météo

L'essentiel des conditions de vol

VIGILANCE MÉTÉO FRANCE - Isère (38)
Pas de vigilances particulieres
CARTE TEMSI
CARTES DES FRONTS
METAR de LFLS
LFLS 300200Z AUTO 12004KT CAVOK 08/07 Q1018

Date d'émission: 30/09/2020
Heure d'émission: 02:00 UTC
Vent: 120° pour 4 KT (7 km/h)
Visibilité horizontale: > 10 km
Plafond : Plafond et visibilité OK (CAVOK)
Température: 8 °C
Point de rosée: 7 °C
Humidité: 93%
Pression (QNH): 1018 hPa
TAF de LFLS
LFLS 291906Z 2919/3015 CNL

Conditions prévues :

Heure d'émission : Bulletin éffectué le 29 à 19:00 UTC
Prévision : Valide du 29 a 19:00 UTC au 30 a 15:00 UTC
Nuages : à 0ft (0 m)
WEBCAM POUR VOIRON

Réglementation

Voler en sécurité

CARTES AERONAUTIQUE 1/500.000
CARTES VAC (LFLS)
SUP AIP




Chargement des AIP...
NOTAM (VOIRON + Terrain à proximité / FIR )




Chargement des NOTAMS...
CONTACT PREFECTURE 38


Avertissement : Les données mises à disposition sont indicatives. Oxygène Drone ne pourra être tenu responsable de dégâts causés aux biens et aux personnes.